Time;durP1;ratioP1;P1;durP2;ratioP2;P2;SDS_P1;SDS_P2;PMS_P1;PMS_P2;Temp;Humidity;BMP_temperature;BMP_pressure;BME280_temperature;BME280_humidity;BME280_pressure;Samples;Min_cycle;Max_cycle;Signal;HPM_P1;HPM_P2
2022/05/02 00:00:10;;;;;;;;;;;12.00;99.90;;;;;;5067432;28;19912;-68
2022/05/02 00:02:35;;;;;;;;;;;12.00;99.90;;;;;;5057839;28;19948;-67
2022/05/02 00:05:01;;;;;;;;;;;12.00;99.90;;;;;;5037303;28;19908;-67
2022/05/02 00:07:27;;;;;;;;;;;12.00;99.90;;;;;;5067564;28;20317;-66
2022/05/02 00:09:52;;;;;;;;;;;12.00;99.90;;;;;;5061295;28;19918;-66
2022/05/02 00:12:18;;;;;;;;;;;12.00;99.90;;;;;;5066299;28;19924;-68
2022/05/02 00:14:43;;;;;;;;;;;12.00;99.90;;;;;;5074876;28;19912;-69
2022/05/02 00:17:09;;;;;;;;;;;12.00;99.90;;;;;;5071897;28;19968;-68
2022/05/02 00:19:35;;;;;;;;;;;12.00;99.90;;;;;;5048674;28;19909;-68
2022/05/02 00:22:00;;;;;;;;;;;12.10;99.90;;;;;;5069055;28;20014;-67
2022/05/02 00:24:26;;;;;;;;;;;12.10;99.90;;;;;;5062963;28;19987;-67
2022/05/02 00:26:51;;;;;;;;;;;12.10;99.90;;;;;;5037189;28;19909;-67
2022/05/02 00:29:17;;;;;;;;;;;12.10;99.90;;;;;;5046175;28;19909;-67
2022/05/02 00:31:45;;;;;;;;;;;12.10;99.90;;;;;;5049860;28;20327;-66
2022/05/02 00:34:12;;;;;;;;;;;12.00;99.90;;;;;;5044085;28;19959;-67
2022/05/02 00:36:37;;;;;;;;;;;12.00;99.90;;;;;;5067189;28;19904;-69
2022/05/02 00:39:03;;;;;;;;;;;12.00;99.90;;;;;;5050285;28;19940;-68
2022/05/02 00:41:28;;;;;;;;;;;12.00;99.90;;;;;;5052429;28;19919;-67
2022/05/02 00:43:54;;;;;;;;;;;12.00;99.90;;;;;;5048864;28;20334;-65
2022/05/02 00:46:50;;;;;;;;;;;12.00;99.90;;;;;;5050061;28;20337;-65
2022/05/02 00:49:16;;;;;;;;;;;12.00;99.90;;;;;;5029196;28;19962;-65
2022/05/02 00:51:41;;;;;;;;;;;12.00;99.90;;;;;;5027893;28;19908;-65
2022/05/02 00:54:07;;;;;;;;;;;12.00;99.90;;;;;;5048952;28;20275;-66
2022/05/02 00:56:33;;;;;;;;;;;12.00;99.90;;;;;;5050175;28;20367;-68
2022/05/02 00:59:00;;;;;;;;;;;12.00;99.90;;;;;;5062282;28;19923;-65
2022/05/02 01:01:25;;;;;;;;;;;11.90;99.90;;;;;;5047871;28;19919;-66
2022/05/02 01:03:51;;;;;;;;;;;11.80;99.90;;;;;;5052942;28;19917;-65
2022/05/02 01:09:02;;;;;;;;;;;11.90;99.90;;;;;;5043547;28;19934;-69
2022/05/02 01:11:29;;;;;;;;;;;11.90;99.90;;;;;;5045162;28;20271;-68
2022/05/02 01:13:54;;;;;;;;;;;11.80;99.90;;;;;;5045793;28;19908;-68
2022/05/02 01:16:24;;;;;;;;;;;11.70;99.90;;;;;;5053458;28;19909;-68
2022/05/02 01:18:51;;;;;;;;;;;11.70;99.90;;;;;;5051608;28;19920;-68
2022/05/02 01:21:18;;;;;;;;;;;11.70;99.90;;;;;;5029152;28;19927;-68
2022/05/02 01:23:44;;;;;;;;;;;11.70;99.90;;;;;;5032904;28;20007;-69
2022/05/02 01:26:10;;;;;;;;;;;11.60;99.90;;;;;;5037760;28;20000;-68
2022/05/02 01:28:49;;;;;;;;;;;11.60;99.90;;;;;;5056635;28;20306;-67
2022/05/02 01:31:15;;;;;;;;;;;11.80;99.90;;;;;;5052037;28;19912;-67
2022/05/02 01:33:41;;;;;;;;;;;11.80;99.90;;;;;;5055375;28;20354;-68
2022/05/02 01:36:06;;;;;;;;;;;11.70;99.90;;;;;;5028778;28;19916;-68
2022/05/02 01:38:33;;;;;;;;;;;11.70;99.90;;;;;;5036169;28;20382;-68
2022/05/02 01:40:59;;;;;;;;;;;11.70;99.90;;;;;;5039034;28;19908;-68
2022/05/02 01:43:25;;;;;;;;;;;11.70;99.90;;;;;;5056435;28;19909;-67
2022/05/02 01:45:51;;;;;;;;;;;11.70;99.90;;;;;;5052199;28;19963;-67
2022/05/02 01:48:16;;;;;;;;;;;11.70;99.90;;;;;;5057317;28;19912;-67
2022/05/02 01:50:42;;;;;;;;;;;11.70;99.90;;;;;;5059829;28;19915;-68
2022/05/02 01:53:07;;;;;;;;;;;11.70;99.90;;;;;;5052997;28;19915;-67
2022/05/02 01:55:33;;;;;;;;;;;11.70;99.90;;;;;;5059296;28;20034;-68
2022/05/02 01:57:58;;;;;;;;;;;11.70;99.90;;;;;;5057468;28;19970;-68
2022/05/02 02:00:24;;;;;;;;;;;11.60;99.90;;;;;;5055421;28;19908;-68
2022/05/02 02:02:49;;;;;;;;;;;11.60;99.90;;;;;;5050157;28;19917;-68
2022/05/02 02:07:59;;;;;;;;;;;11.60;99.90;;;;;;5057579;28;19931;-67
2022/05/02 02:10:24;;;;;;;;;;;11.60;99.90;;;;;;5033481;28;20355;-68
2022/05/02 02:12:50;;;;;;;;;;;11.60;99.90;;;;;;5048777;28;19967;-68
2022/05/02 02:15:16;;;;;;;;;;;11.60;99.90;;;;;;5045130;28;20000;-68
2022/05/02 02:17:42;;;;;;;;;;;11.60;99.90;;;;;;5040001;28;19917;-68
2022/05/02 02:20:08;;;;;;;;;;;11.60;99.90;;;;;;5054400;28;19916;-68
2022/05/02 02:22:37;;;;;;;;;;;11.70;99.90;;;;;;5050906;28;19909;-67
2022/05/02 02:25:03;;;;;;;;;;;11.70;99.90;;;;;;5053924;28;20317;-67
2022/05/02 02:27:29;;;;;;;;;;;11.80;99.90;;;;;;5052483;28;20373;-68
2022/05/02 02:29:54;;;;;;;;;;;11.80;99.90;;;;;;5053415;28;19908;-67
2022/05/02 02:32:20;;;;;;;;;;;11.70;99.90;;;;;;5056714;28;20379;-67
2022/05/02 02:34:45;;;;;;;;;;;11.70;99.90;;;;;;5039116;28;19909;-67
2022/05/02 02:37:11;;;;;;;;;;;11.70;99.90;;;;;;5053076;28;20447;-68
2022/05/02 02:39:36;;;;;;;;;;;11.70;99.90;;;;;;5056944;28;19915;-67
2022/05/02 02:42:02;;;;;;;;;;;11.70;99.90;;;;;;5044069;28;19919;-69
2022/05/02 02:44:28;;;;;;;;;;;11.70;99.90;;;;;;5060667;28;19915;-68
2022/05/02 02:46:53;;;;;;;;;;;11.70;99.90;;;;;;5059090;28;19909;-69
2022/05/02 02:49:19;;;;;;;;;;;11.70;99.90;;;;;;5056795;28;20374;-67
2022/05/02 02:51:44;;;;;;;;;;;11.70;99.90;;;;;;5056514;28;19908;-67
2022/05/02 02:54:10;;;;;;;;;;;11.60;99.90;;;;;;5057377;28;19944;-67
2022/05/02 02:56:35;;;;;;;;;;;11.60;99.90;;;;;;5057943;28;19920;-67
2022/05/02 02:59:01;;;;;;;;;;;11.60;99.90;;;;;;5051883;28;19998;-67
2022/05/02 03:01:28;;;;;;;;;;;11.50;99.90;;;;;;5034886;28;20001;-67
2022/05/02 03:03:53;;;;;;;;;;;11.50;99.90;;;;;;5039193;28;19909;-67
2022/05/02 03:06:19;;;;;;;;;;;11.50;99.90;;;;;;5056677;28;19935;-67
2022/05/02 03:08:44;;;;;;;;;;;11.50;99.90;;;;;;5053361;28;19931;-67
2022/05/02 03:11:10;;;;;;;;;;;11.50;99.90;;;;;;5053203;28;19917;-67
2022/05/02 03:13:36;;;;;;;;;;;11.50;99.90;;;;;;5036001;28;20001;-68
2022/05/02 03:16:02;;;;;;;;;;;11.40;99.90;;;;;;5051671;28;20366;-67
2022/05/02 03:18:28;;;;;;;;;;;11.40;99.90;;;;;;5052975;28;19920;-67
2022/05/02 03:20:54;;;;;;;;;;;11.50;99.90;;;;;;5053130;28;20383;-67
2022/05/02 03:23:20;;;;;;;;;;;11.60;99.90;;;;;;5054735;28;20437;-67
2022/05/02 03:25:45;;;;;;;;;;;11.70;99.90;;;;;;5055877;28;19916;-67
2022/05/02 03:28:11;;;;;;;;;;;11.70;99.90;;;;;;5053343;28;19923;-68
2022/05/02 03:30:40;;;;;;;;;;;11.70;99.90;;;;;;5046874;28;20329;-67
2022/05/02 03:33:05;;;;;;;;;;;11.60;99.90;;;;;;5051783;28;19910;-68
2022/05/02 03:35:32;;;;;;;;;;;11.60;99.90;;;;;;5055104;28;19971;-68
2022/05/02 03:37:57;;;;;;;;;;;11.60;99.90;;;;;;5050976;28;19921;-68
2022/05/02 03:40:24;;;;;;;;;;;11.70;99.90;;;;;;5037040;28;20007;-67
2022/05/02 03:42:49;;;;;;;;;;;11.60;99.90;;;;;;5056036;28;19962;-68
2022/05/02 03:45:15;;;;;;;;;;;11.60;99.90;;;;;;5051949;28;19909;-67
2022/05/02 03:47:40;;;;;;;;;;;11.60;99.90;;;;;;5037573;28;20015;-67
2022/05/02 03:50:06;;;;;;;;;;;11.60;99.90;;;;;;5051383;28;19995;-68
2022/05/02 03:52:32;;;;;;;;;;;11.60;99.90;;;;;;5036730;28;19909;-67
2022/05/02 03:54:57;;;;;;;;;;;11.40;99.90;;;;;;5053301;28;19972;-68
2022/05/02 03:57:23;;;;;;;;;;;11.50;99.90;;;;;;5053682;28;19921;-68
2022/05/02 03:59:48;;;;;;;;;;;11.50;99.90;;;;;;5047346;28;19962;-68
2022/05/02 04:02:14;;;;;;;;;;;11.50;99.90;;;;;;5054455;28;19913;-68
2022/05/02 04:04:39;;;;;;;;;;;11.50;99.90;;;;;;5042998;28;19908;-68
2022/05/02 04:07:05;;;;;;;;;;;11.50;99.90;;;;;;5055323;28;19912;-67
2022/05/02 04:09:31;;;;;;;;;;;11.50;99.90;;;;;;5051190;28;19915;-67
2022/05/02 04:11:57;;;;;;;;;;;11.50;99.90;;;;;;5034050;28;20015;-67
2022/05/02 04:14:22;;;;;;;;;;;11.40;99.90;;;;;;5053638;28;19951;-68
2022/05/02 04:16:49;;;;;;;;;;;11.40;99.90;;;;;;5055453;28;20399;-68
2022/05/02 04:19:16;;;;;;;;;;;11.50;99.90;;;;;;5034423;28;20558;-68
2022/05/02 04:21:41;;;;;;;;;;;11.40;99.90;;;;;;5036900;28;19909;-67
2022/05/02 04:24:07;;;;;;;;;;;11.40;99.90;;;;;;5053020;28;20326;-67
2022/05/02 04:26:33;;;;;;;;;;;11.40;99.90;;;;;;5053735;28;20366;-68
2022/05/02 04:28:59;;;;;;;;;;;11.40;99.90;;;;;;5056803;28;19909;-68
2022/05/02 04:31:24;;;;;;;;;;;11.40;99.90;;;;;;5056375;28;19920;-68
2022/05/02 04:33:50;;;;;;;;;;;11.50;99.90;;;;;;5051657;28;19908;-68
2022/05/02 04:36:16;;;;;;;;;;;11.40;99.90;;;;;;5045233;28;19909;-68
2022/05/02 04:38:41;;;;;;;;;;;11.40;99.90;;;;;;5052297;28;19917;-68
2022/05/02 04:41:07;;;;;;;;;;;11.40;99.90;;;;;;5055643;28;19916;-68
2022/05/02 04:43:33;;;;;;;;;;;11.40;99.90;;;;;;5038296;28;19909;-68
2022/05/02 04:45:58;;;;;;;;;;;11.40;99.90;;;;;;5051334;28;19913;-68
2022/05/02 04:48:24;;;;;;;;;;;11.40;99.90;;;;;;5050490;28;19962;-68
2022/05/02 04:50:49;;;;;;;;;;;11.50;99.90;;;;;;5048867;28;19948;-67
2022/05/02 04:53:15;;;;;;;;;;;11.60;99.90;;;;;;5047427;28;20314;-68
2022/05/02 04:55:40;;;;;;;;;;;11.60;99.90;;;;;;5054677;28;20008;-68
2022/05/02 04:58:06;;;;;;;;;;;11.50;99.90;;;;;;5055753;28;19917;-68
2022/05/02 05:00:31;;;;;;;;;;;11.50;99.90;;;;;;5053033;28;19909;-68
2022/05/02 05:02:57;;;;;;;;;;;11.50;99.90;;;;;;5036416;28;20235;-68
2022/05/02 05:05:22;;;;;;;;;;;11.50;99.90;;;;;;5050010;28;20579;-68
2022/05/02 05:07:48;;;;;;;;;;;11.50;99.90;;;;;;5050117;28;20007;-67
2022/05/02 05:10:14;;;;;;;;;;;11.50;99.90;;;;;;5056870;28;19919;-66
2022/05/02 05:12:39;;;;;;;;;;;11.50;99.90;;;;;;5055247;28;19968;-66
2022/05/02 05:18:14;;;;;;;;;;;11.50;99.90;;;;;;5052252;28;19923;-68
2022/05/02 05:20:45;;;;;;;;;;;11.50;99.90;;;;;;5051668;28;20354;-68
2022/05/02 05:23:17;;;;;;;;;;;11.50;99.90;;;;;;5059461;28;19909;-68
2022/05/02 05:25:46;;;;;;;;;;;11.50;99.90;;;;;;5061001;28;19909;-67
2022/05/02 05:28:23;;;;;;;;;;;11.50;99.90;;;;;;5060634;28;19936;-67
2022/05/02 05:30:51;;;;;;;;;;;11.60;99.90;;;;;;5058785;28;19913;-67
2022/05/02 05:33:16;;;;;;;;;;;11.70;99.90;;;;;;5041366;28;19909;-67
2022/05/02 05:35:42;;;;;;;;;;;11.80;99.90;;;;;;5059900;28;19951;-68
2022/05/02 05:38:09;;;;;;;;;;;11.80;99.90;;;;;;5041432;28;20443;-67
2022/05/02 05:40:39;;;;;;;;;;;11.90;99.90;;;;;;5053825;28;19999;-67
2022/05/02 05:43:17;;;;;;;;;;;12.00;99.90;;;;;;5048392;28;19987;-67
2022/05/02 05:46:07;;;;;;;;;;;12.10;99.90;;;;;;5047261;28;19919;-68
2022/05/02 05:48:35;;;;;;;;;;;12.20;99.90;;;;;;5056905;28;19960;-68
2022/05/02 05:51:13;;;;;;;;;;;12.10;99.90;;;;;;5056707;28;19916;-68
2022/05/02 05:53:48;;;;;;;;;;;12.10;99.90;;;;;;5055939;28;19909;-68
2022/05/02 05:56:28;;;;;;;;;;;12.10;99.90;;;;;;5039176;28;19976;-67
2022/05/02 05:59:03;;;;;;;;;;;12.10;99.90;;;;;;5052638;28;19978;-68
2022/05/02 06:01:31;;;;;;;;;;;12.10;99.90;;;;;;5051958;28;19909;-68
2022/05/02 06:04:04;;;;;;;;;;;12.10;99.90;;;;;;5064034;28;19954;-68
2022/05/02 06:06:30;;;;;;;;;;;12.30;99.90;;;;;;5051907;28;19920;-68
2022/05/02 06:08:59;;;;;;;;;;;12.40;99.90;;;;;;5054709;28;20358;-68
2022/05/02 06:11:28;;;;;;;;;;;12.40;99.90;;;;;;5036984;28;19916;-68
2022/05/02 06:13:54;;;;;;;;;;;12.30;99.90;;;;;;5054343;28;20007;-68
2022/05/02 06:19:07;;;;;;;;;;;12.20;99.90;;;;;;5052504;28;19932;-68
2022/05/02 06:21:33;;;;;;;;;;;12.20;99.90;;;;;;5056125;28;19915;-68
2022/05/02 06:24:00;;;;;;;;;;;12.30;99.90;;;;;;5053194;28;19909;-68
2022/05/02 06:26:26;;;;;;;;;;;12.30;99.90;;;;;;5059499;28;19908;-68
2022/05/02 06:28:54;;;;;;;;;;;12.40;99.90;;;;;;5040510;28;19909;-68
2022/05/02 06:31:25;;;;;;;;;;;12.40;99.90;;;;;;5056254;28;19916;-68
2022/05/02 06:33:51;;;;;;;;;;;12.40;99.90;;;;;;5060292;28;19923;-68
2022/05/02 06:36:35;;;;;;;;;;;12.30;99.90;;;;;;5060878;28;19956;-69
2022/05/02 06:39:20;;;;;;;;;;;12.30;99.90;;;;;;5057584;28;20491;-68
2022/05/02 06:42:04;;;;;;;;;;;12.30;99.90;;;;;;5056136;28;19943;-68
2022/05/02 06:44:33;;;;;;;;;;;12.40;99.90;;;;;;5048038;28;19994;-68
2022/05/02 06:47:06;;;;;;;;;;;12.50;99.90;;;;;;5056061;28;20290;-68
2022/05/02 06:49:32;;;;;;;;;;;12.60;99.90;;;;;;5054715;28;19931;-68
2022/05/02 06:51:58;;;;;;;;;;;12.80;99.90;;;;;;5053883;28;19917;-68
2022/05/02 06:54:42;;;;;;;;;;;12.90;99.90;;;;;;5039975;28;19978;-68
2022/05/02 06:57:23;;;;;;;;;;;13.00;99.90;;;;;;5052435;28;19909;-68
2022/05/02 06:59:57;;;;;;;;;;;13.20;99.90;;;;;;5052313;28;19995;-68
2022/05/02 07:02:24;;;;;;;;;;;13.20;99.90;;;;;;5060543;28;19962;-69
2022/05/02 07:04:49;;;;;;;;;;;13.30;99.90;;;;;;5041505;28;19917;-69
2022/05/02 07:07:44;;;;;;;;;;;13.10;99.90;;;;;;5054865;28;20605;-70
2022/05/02 07:10:17;;;;;;;;;;;13.00;99.90;;;;;;5028032;28;20343;-71
2022/05/02 07:12:52;;;;;;;;;;;12.90;99.90;;;;;;5052114;28;19913;-70
2022/05/02 07:15:17;;;;;;;;;;;12.80;99.90;;;;;;5050237;28;19960;-71
2022/05/02 07:17:42;;;;;;;;;;;12.80;99.90;;;;;;5054347;28;20451;-71
2022/05/02 07:20:19;;;;;;;;;;;12.80;99.90;;;;;;5046927;28;19909;-69
2022/05/02 07:23:08;;;;;;;;;;;12.70;99.90;;;;;;5051215;28;19916;-70
2022/05/02 07:25:37;;;;;;;;;;;13.00;99.90;;;;;;5041109;28;19963;-70
2022/05/02 07:28:21;;;;;;;;;;;13.10;99.90;;;;;;5060060;28;19909;-69
2022/05/02 07:30:47;;;;;;;;;;;13.00;99.90;;;;;;5052292;28;19983;-70
2022/05/02 07:33:13;;;;;;;;;;;13.10;99.90;;;;;;5033565;28;20018;-72
2022/05/02 07:35:40;;;;;;;;;;;13.20;99.90;;;;;;5046334;28;19995;-72
2022/05/02 07:38:06;;;;;;;;;;;13.20;99.90;;;;;;5045391;28;19952;-74
2022/05/02 07:40:33;;;;;;;;;;;13.40;99.90;;;;;;5048562;28;19909;-71
2022/05/02 07:43:00;;;;;;;;;;;13.70;99.90;;;;;;5043604;28;19911;-71
2022/05/02 07:45:30;;;;;;;;;;;13.80;99.90;;;;;;5025068;28;19967;-71
2022/05/02 07:48:00;;;;;;;;;;;13.80;99.90;;;;;;5049957;28;19909;-71
2022/05/02 07:50:27;;;;;;;;;;;13.90;99.90;;;;;;5046513;28;22550;-71
2022/05/02 07:52:55;;;;;;;;;;;13.90;99.90;;;;;;5051334;28;19905;-70
2022/05/02 07:55:21;;;;;;;;;;;13.90;99.90;;;;;;5052051;28;19909;-71
2022/05/02 07:57:51;;;;;;;;;;;13.70;99.90;;;;;;5043099;28;19979;-70
2022/05/02 08:00:16;;;;;;;;;;;13.70;99.90;;;;;;5043154;28;19908;-70
2022/05/02 08:02:42;;;;;;;;;;;13.80;99.90;;;;;;5050044;28;19924;-69
2022/05/02 08:05:08;;;;;;;;;;;13.90;99.90;;;;;;5020316;28;19916;-69
2022/05/02 08:07:34;;;;;;;;;;;13.90;99.90;;;;;;5046287;28;19974;-67
2022/05/02 08:10:12;;;;;;;;;;;14.00;99.90;;;;;;5044338;28;19908;-67
2022/05/02 08:12:41;;;;;;;;;;;14.00;99.90;;;;;;5045383;28;19974;-69
2022/05/02 08:15:10;;;;;;;;;;;13.90;99.90;;;;;;5044924;28;20228;-69
2022/05/02 08:17:36;;;;;;;;;;;14.10;99.90;;;;;;5044064;28;19921;-68
2022/05/02 08:20:07;;;;;;;;;;;13.90;99.90;;;;;;5049173;28;19917;-68
2022/05/02 08:28:14;;;;;;;;;;;14.30;99.90;;;;;;5038218;28;19954;-69
2022/05/02 08:31:15;;;;;;;;;;;14.40;99.90;;;;;;5025419;28;20286;-69
2022/05/02 08:33:54;;;;;;;;;;;14.40;99.90;;;;;;4965171;28;20099;-70
2022/05/02 08:36:29;;;;;;;;;;;14.40;99.90;;;;;;5031725;28;20305;-71
2022/05/02 08:38:59;;;;;;;;;;;14.30;99.90;;;;;;5047687;28;19916;-69
2022/05/02 08:41:28;;;;;;;;;;;14.30;99.90;;;;;;5045900;28;20381;-69
2022/05/02 08:43:56;;;;;;;;;;;14.30;99.90;;;;;;5041841;28;19909;-69
2022/05/02 08:46:40;;;;;;;;;;;14.50;99.90;;;;;;5038929;28;19908;-71
2022/05/02 08:49:33;;;;;;;;;;;14.40;99.90;;;;;;5040612;28;19999;-71
2022/05/02 08:52:17;;;;;;;;;;;14.50;99.90;;;;;;5045993;28;19913;-69
2022/05/02 08:54:43;;;;;;;;;;;14.40;99.90;;;;;;5046323;28;20008;-71
2022/05/02 08:57:14;;;;;;;;;;;14.30;99.90;;;;;;5043211;28;20344;-71
2022/05/02 08:59:40;;;;;;;;;;;14.30;99.90;;;;;;5042683;28;19920;-70
2022/05/02 09:02:08;;;;;;;;;;;14.50;99.90;;;;;;5046040;28;19909;-70
2022/05/02 09:04:34;;;;;;;;;;;14.60;99.90;;;;;;5042535;28;20342;-72
2022/05/02 09:07:03;;;;;;;;;;;14.50;99.90;;;;;;5034052;28;19995;-72
2022/05/02 09:09:29;;;;;;;;;;;14.60;99.90;;;;;;5043473;28;19909;-73
2022/05/02 09:11:54;;;;;;;;;;;14.70;99.90;;;;;;5035740;28;20269;-71
2022/05/02 09:14:39;;;;;;;;;;;14.80;99.90;;;;;;5034158;28;20230;-70
2022/05/02 09:17:15;;;;;;;;;;;15.00;99.90;;;;;;5038171;28;19963;-69
2022/05/02 09:19:59;;;;;;;;;;;15.20;99.90;;;;;;5038936;28;20289;-68
2022/05/02 09:22:28;;;;;;;;;;;15.00;99.90;;;;;;5034231;28;19913;-69
2022/05/02 09:25:05;;;;;;;;;;;15.00;99.90;;;;;;5048222;28;20389;-70
2022/05/02 09:27:41;;;;;;;;;;;15.20;99.90;;;;;;5043163;28;20035;-72
2022/05/02 09:30:12;;;;;;;;;;;15.30;99.90;;;;;;5027845;28;19909;-73
2022/05/02 09:32:44;;;;;;;;;;;15.30;99.90;;;;;;5044574;28;20358;-70
2022/05/02 09:35:30;;;;;;;;;;;15.30;99.90;;;;;;5025226;28;19913;-71
2022/05/02 09:38:15;;;;;;;;;;;15.40;99.90;;;;;;5042265;28;19921;-69
2022/05/02 09:40:41;;;;;;;;;;;15.30;99.90;;;;;;5046787;28;19944;-70
2022/05/02 09:43:25;;;;;;;;;;;15.30;99.90;;;;;;5050342;28;19912;-70
2022/05/02 09:51:55;;;;;;;;;;;14.70;99.90;;;;;;5044490;28;19904;-70
2022/05/02 09:57:22;;;;;;;;;;;14.90;99.90;;;;;;5045340;28;20397;-71
2022/05/02 09:59:48;;;;;;;;;;;15.20;99.90;;;;;;5050190;28;19916;-70
2022/05/02 10:02:14;;;;;;;;;;;15.50;99.90;;;;;;5053849;28;20038;-69
2022/05/02 10:04:40;;;;;;;;;;;15.70;99.90;;;;;;5053208;28;19913;-70
2022/05/02 10:07:06;;;;;;;;;;;15.80;99.90;;;;;;5048589;28;19924;-71
2022/05/02 10:09:45;;;;;;;;;;;16.00;99.90;;;;;;5043445;28;19934;-69
2022/05/02 10:12:10;;;;;;;;;;;16.10;99.90;;;;;;5041529;28;19971;-70
2022/05/02 10:15:03;;;;;;;;;;;15.80;99.90;;;;;;5048999;28;19912;-71
2022/05/02 10:17:31;;;;;;;;;;;15.70;99.90;;;;;;5039285;28;19963;-72
2022/05/02 10:19:57;;;;;;;;;;;15.80;99.90;;;;;;5022642;28;20282;-72
2022/05/02 10:22:30;;;;;;;;;;;15.90;99.90;;;;;;5037110;28;20028;-71
2022/05/02 10:25:08;;;;;;;;;;;15.90;99.90;;;;;;5050623;28;19915;-72
2022/05/02 10:27:38;;;;;;;;;;;16.10;99.90;;;;;;5047724;28;19991;-71
2022/05/02 10:30:08;;;;;;;;;;;16.10;99.90;;;;;;5040301;28;19978;-70
2022/05/02 10:32:33;;;;;;;;;;;16.20;99.90;;;;;;5042898;28;19908;-69
2022/05/02 10:35:00;;;;;;;;;;;16.20;99.90;;;;;;5050963;28;20278;-73
2022/05/02 10:37:31;;;;;;;;;;;16.00;99.90;;;;;;5031336;28;19913;-71
2022/05/02 10:40:04;;;;;;;;;;;16.10;99.90;;;;;;5030865;28;19923;-71
2022/05/02 10:42:31;;;;;;;;;;;15.90;99.90;;;;;;5053080;28;19909;-72
2022/05/02 10:45:03;;;;;;;;;;;15.90;99.90;;;;;;5052453;28;19908;-70
2022/05/02 10:47:37;;;;;;;;;;;15.90;99.90;;;;;;5047375;28;20389;-71
2022/05/02 10:50:02;;;;;;;;;;;16.00;99.90;;;;;;5044552;28;19909;-72
2022/05/02 10:52:30;;;;;;;;;;;16.10;99.90;;;;;;5046643;28;19913;-71
2022/05/02 10:55:02;;;;;;;;;;;16.40;99.90;;;;;;5056507;28;19908;-71
2022/05/02 10:57:34;;;;;;;;;;;16.30;99.90;;;;;;5047318;28;19909;-72
2022/05/02 11:00:03;;;;;;;;;;;16.70;99.90;;;;;;5048829;28;19915;-72
2022/05/02 11:02:47;;;;;;;;;;;17.20;99.90;;;;;;5047438;28;19920;-72
2022/05/02 11:05:36;;;;;;;;;;;17.80;99.90;;;;;;5029053;28;19913;-72
2022/05/02 11:08:21;;;;;;;;;;;17.90;99.90;;;;;;5045171;28;19913;-71
2022/05/02 11:10:56;;;;;;;;;;;17.60;99.90;;;;;;5043086;28;19917;-72
2022/05/02 11:13:37;;;;;;;;;;;17.40;99.90;;;;;;5043400;28;19951;-69
2022/05/02 11:16:03;;;;;;;;;;;17.60;99.90;;;;;;5033096;28;19909;-70
2022/05/02 11:21:42;;;;;;;;;;;17.70;99.90;;;;;;5045632;28;19928;-72
2022/05/02 11:24:17;;;;;;;;;;;17.90;99.90;;;;;;5050133;28;19909;-70
2022/05/02 11:26:45;;;;;;;;;;;17.70;99.90;;;;;;5047660;28;19939;-72
2022/05/02 11:29:36;;;;;;;;;;;17.50;99.90;;;;;;5032813;28;20279;-70
2022/05/02 11:32:06;;;;;;;;;;;17.40;99.90;;;;;;5049730;28;20378;-71
2022/05/02 11:34:38;;;;;;;;;;;17.10;99.90;;;;;;5052359;28;19963;-71
2022/05/02 11:37:06;;;;;;;;;;;17.20;99.90;;;;;;5039989;28;20949;-71
2022/05/02 11:39:43;;;;;;;;;;;17.20;99.90;;;;;;5047265;28;19990;-70
2022/05/02 11:42:14;;;;;;;;;;;17.10;99.90;;;;;;5040981;28;20363;-70
2022/05/02 11:44:47;;;;;;;;;;;17.00;99.90;;;;;;5047256;28;19973;-72
2022/05/02 11:47:20;;;;;;;;;;;16.80;99.90;;;;;;5041254;28;20007;-71
2022/05/02 11:49:52;;;;;;;;;;;16.50;99.90;;;;;;5028930;28;20377;-72
2022/05/02 11:52:30;;;;;;;;;;;16.60;99.90;;;;;;5042516;28;19912;-72
2022/05/02 11:54:56;;;;;;;;;;;16.40;99.90;;;;;;5049040;28;19954;-71
2022/05/02 11:57:28;;;;;;;;;;;16.40;99.90;;;;;;5046532;28;20301;-71
2022/05/02 11:59:54;;;;;;;;;;;16.60;99.90;;;;;;5038691;28;19916;-73
2022/05/02 12:02:27;;;;;;;;;;;16.60;99.90;;;;;;5023835;28;20011;-71
2022/05/02 12:04:57;;;;;;;;;;;16.60;99.90;;;;;;5043217;28;19916;-70
2022/05/02 12:07:29;;;;;;;;;;;16.70;99.90;;;;;;5046412;28;19909;-70
2022/05/02 12:10:14;;;;;;;;;;;17.00;99.90;;;;;;5042054;28;19917;-71
2022/05/02 12:12:48;;;;;;;;;;;17.10;99.90;;;;;;5048774;28;19932;-71
2022/05/02 12:15:16;;;;;;;;;;;17.10;99.90;;;;;;5042445;28;19957;-69
2022/05/02 12:17:55;;;;;;;;;;;17.30;99.90;;;;;;5039701;28;20289;-70
2022/05/02 12:20:29;;;;;;;;;;;17.70;99.90;;;;;;5043222;28;20018;-70
2022/05/02 12:22:58;;;;;;;;;;;17.70;99.90;;;;;;5047881;28;19909;-71
2022/05/02 12:25:25;;;;;;;;;;;17.80;99.90;;;;;;5040273;28;19913;-69
2022/05/02 12:27:51;;;;;;;;;;;17.80;99.90;;;;;;5041420;28;20228;-70
2022/05/02 12:30:18;;;;;;;;;;;17.70;99.90;;;;;;5035399;28;19913;-72
2022/05/02 12:32:45;;;;;;;;;;;18.00;99.90;;;;;;5033232;28;20507;-74
2022/05/02 12:35:12;;;;;;;;;;;18.10;99.90;;;;;;5043991;28;19962;-71
2022/05/02 12:37:39;;;;;;;;;;;18.10;99.90;;;;;;5043317;28;20382;-70
2022/05/02 12:40:11;;;;;;;;;;;18.10;99.90;;;;;;5034684;28;19915;-71
2022/05/02 12:42:44;;;;;;;;;;;17.60;99.90;;;;;;5054313;28;19996;-71
2022/05/02 12:45:15;;;;;;;;;;;17.60;99.90;;;;;;5024339;28;19917;-71
2022/05/02 12:47:59;;;;;;;;;;;17.60;99.90;;;;;;5049282;28;19911;-71
2022/05/02 12:50:27;;;;;;;;;;;17.70;99.90;;;;;;5040224;28;19908;-70
2022/05/02 12:52:55;;;;;;;;;;;17.80;99.90;;;;;;5041255;28;19917;-69
2022/05/02 12:55:23;;;;;;;;;;;17.60;99.90;;;;;;5046043;28;19909;-71
2022/05/02 13:00:44;;;;;;;;;;;17.30;99.90;;;;;;5048017;28;19931;-69
2022/05/02 13:03:30;;;;;;;;;;;17.40;99.90;;;;;;5045636;28;19992;-71
2022/05/02 13:06:05;;;;;;;;;;;17.50;99.90;;;;;;5047684;28;20392;-70
2022/05/02 13:08:32;;;;;;;;;;;17.50;99.90;;;;;;5036467;28;20054;-71
2022/05/02 13:11:08;;;;;;;;;;;17.30;99.90;;;;;;5039442;28;20047;-68
2022/05/02 13:14:01;;;;;;;;;;;17.50;99.90;;;;;;5047295;28;19912;-72
2022/05/02 13:16:28;;;;;;;;;;;17.50;99.90;;;;;;5040749;28;20444;-71
2022/05/02 13:18:55;;;;;;;;;;;17.30;99.90;;;;;;5046007;28;19936;-70
2022/05/02 13:21:20;;;;;;;;;;;17.10;99.90;;;;;;5039127;28;19923;-70
2022/05/02 13:23:47;;;;;;;;;;;17.10;99.90;;;;;;5029189;28;19999;-69
2022/05/02 13:26:33;;;;;;;;;;;17.00;99.90;;;;;;5042966;28;19908;-71
2022/05/02 13:29:03;;;;;;;;;;;17.10;99.90;;;;;;5039454;28;20373;-72
2022/05/02 13:31:32;;;;;;;;;;;17.10;99.90;;;;;;5045255;28;19912;-71
2022/05/02 13:34:02;;;;;;;;;;;17.00;99.90;;;;;;5048191;28;19912;-72
2022/05/02 13:36:30;;;;;;;;;;;17.00;99.90;;;;;;5047514;28;19925;-72
2022/05/02 13:39:15;;;;;;;;;;;16.80;99.90;;;;;;5043177;28;20011;-72
2022/05/02 13:41:50;;;;;;;;;;;16.60;99.90;;;;;;5043479;28;19909;-71
2022/05/02 13:44:34;;;;;;;;;;;16.50;99.90;;;;;;5042345;28;19909;-72
2022/05/02 13:47:09;;;;;;;;;;;16.50;99.90;;;;;;5046011;28;19908;-71
2022/05/02 13:49:41;;;;;;;;;;;16.30;99.90;;;;;;5037543;28;20039;-72
2022/05/02 13:52:22;;;;;;;;;;;16.10;99.90;;;;;;5030582;28;20614;-72
2022/05/02 13:54:54;;;;;;;;;;;16.00;99.90;;;;;;5040188;28;20279;-73
2022/05/02 13:57:32;;;;;;;;;;;15.90;99.90;;;;;;5027852;28;20235;-73
2022/05/02 14:00:32;;;;;;;;;;;15.90;99.90;;;;;;5041982;28;19963;-72
2022/05/02 14:03:09;;;;;;;;;;;15.90;99.90;;;;;;5041521;28;20290;-72
2022/05/02 14:05:43;;;;;;;;;;;15.90;99.90;;;;;;5018158;28;19962;-69
2022/05/02 14:08:11;;;;;;;;;;;16.00;99.90;;;;;;5047390;28;20154;-71
2022/05/02 14:10:58;;;;;;;;;;;16.00;99.90;;;;;;5044250;28;19927;-70
2022/05/02 14:13:26;;;;;;;;;;;16.00;99.90;;;;;;5047801;28;19913;-71
2022/05/02 14:15:52;;;;;;;;;;;16.20;99.90;;;;;;5049699;28;20396;-69
2022/05/02 14:18:19;;;;;;;;;;;16.30;99.90;;;;;;5048634;28;19921;-70
2022/05/02 14:20:45;;;;;;;;;;;16.30;99.90;;;;;;5024298;28;20413;-71
2022/05/02 14:23:12;;;;;;;;;;;16.20;99.90;;;;;;5045234;28;20103;-71
2022/05/02 14:25:42;;;;;;;;;;;16.00;99.90;;;;;;5046237;28;19908;-72
2022/05/02 14:28:07;;;;;;;;;;;16.00;99.90;;;;;;5048989;28;19913;-70
2022/05/02 14:30:38;;;;;;;;;;;16.00;99.90;;;;;;5029822;28;19923;-72
2022/05/02 14:33:13;;;;;;;;;;;16.20;99.90;;;;;;5045645;28;19908;-71
2022/05/02 14:35:41;;;;;;;;;;;16.20;99.90;;;;;;5045604;28;20039;-72
2022/05/02 14:38:11;;;;;;;;;;;16.40;99.90;;;;;;5026186;28;19916;-71
2022/05/02 14:40:40;;;;;;;;;;;16.50;99.90;;;;;;5046562;28;19950;-71
2022/05/02 14:43:07;;;;;;;;;;;16.70;99.90;;;;;;5046237;28;20488;-70
2022/05/02 14:45:33;;;;;;;;;;;16.70;99.90;;;;;;5016712;28;19917;-69
2022/05/02 14:47:59;;;;;;;;;;;16.60;99.90;;;;;;5050922;28;20362;-72
2022/05/02 14:50:28;;;;;;;;;;;16.70;99.90;;;;;;5024783;28;19916;-70
2022/05/02 14:52:54;;;;;;;;;;;16.60;99.90;;;;;;5042746;28;19935;-71
2022/05/02 14:55:24;;;;;;;;;;;16.70;99.90;;;;;;5032821;28;20047;-71
2022/05/02 14:57:51;;;;;;;;;;;16.70;99.90;;;;;;5049159;28;20290;-71
2022/05/02 15:00:19;;;;;;;;;;;16.60;99.90;;;;;;5050727;28;19915;-69
2022/05/02 15:02:47;;;;;;;;;;;16.50;99.90;;;;;;5053215;28;20306;-71